sensor_id;sensor_type;location;lat;lon;timestamp;P1;durP1;ratioP1;P2;durP2;ratioP2
54937;SDS011;52756;52.826;6.214;2024-03-17T00:00:20;5.80;;;2.10;;
54937;SDS011;52756;52.826;6.214;2024-03-17T00:02:46;4.28;;;1.75;;
54937;SDS011;52756;52.826;6.214;2024-03-17T00:05:12;5.47;;;2.20;;
54937;SDS011;52756;52.826;6.214;2024-03-17T00:07:39;4.95;;;2.00;;
54937;SDS011;52756;52.826;6.214;2024-03-17T00:10:05;4.95;;;2.67;;
54937;SDS011;52756;52.826;6.214;2024-03-17T00:12:32;4.15;;;2.15;;
54937;SDS011;52756;52.826;6.214;2024-03-17T00:14:58;5.63;;;2.45;;
54937;SDS011;52756;52.826;6.214;2024-03-17T00:17:24;4.85;;;1.85;;
54937;SDS011;52756;52.826;6.214;2024-03-17T00:19:49;7.72;;;2.22;;
54937;SDS011;52756;52.826;6.214;2024-03-17T00:22:16;3.60;;;2.20;;
54937;SDS011;52756;52.826;6.214;2024-03-17T00:24:45;8.13;;;2.63;;
54937;SDS011;52756;52.826;6.214;2024-03-17T00:27:13;5.05;;;1.90;;
54937;SDS011;52756;52.826;6.214;2024-03-17T00:29:39;4.30;;;1.90;;
54937;SDS011;52756;52.826;6.214;2024-03-17T00:32:05;5.85;;;2.35;;
54937;SDS011;52756;52.826;6.214;2024-03-17T00:34:31;3.55;;;1.98;;
54937;SDS011;52756;52.826;6.214;2024-03-17T00:36:57;5.13;;;1.85;;
54937;SDS011;52756;52.826;6.214;2024-03-17T00:39:24;5.35;;;1.85;;
54937;SDS011;52756;52.826;6.214;2024-03-17T00:41:50;4.32;;;2.08;;
54937;SDS011;52756;52.826;6.214;2024-03-17T00:44:16;3.92;;;2.45;;
54937;SDS011;52756;52.826;6.214;2024-03-17T00:46:41;3.95;;;1.88;;
54937;SDS011;52756;52.826;6.214;2024-03-17T00:49:07;5.82;;;2.67;;
54937;SDS011;52756;52.826;6.214;2024-03-17T00:51:34;4.68;;;1.80;;
54937;SDS011;52756;52.826;6.214;2024-03-17T00:53:59;4.32;;;1.88;;
54937;SDS011;52756;52.826;6.214;2024-03-17T00:56:25;5.45;;;1.75;;
54937;SDS011;52756;52.826;6.214;2024-03-17T00:58:50;5.88;;;1.90;;
54937;SDS011;52756;52.826;6.214;2024-03-17T01:01:16;4.50;;;1.92;;
54937;SDS011;52756;52.826;6.214;2024-03-17T01:03:42;4.60;;;1.88;;
54937;SDS011;52756;52.826;6.214;2024-03-17T01:06:08;5.55;;;1.90;;
54937;SDS011;52756;52.826;6.214;2024-03-17T01:08:34;2.95;;;1.67;;
54937;SDS011;52756;52.826;6.214;2024-03-17T01:10:59;4.45;;;2.30;;
54937;SDS011;52756;52.826;6.214;2024-03-17T01:13:25;7.65;;;2.30;;
54937;SDS011;52756;52.826;6.214;2024-03-17T01:15:51;5.40;;;2.00;;
54937;SDS011;52756;52.826;6.214;2024-03-17T01:18:17;3.45;;;1.55;;
54937;SDS011;52756;52.826;6.214;2024-03-17T01:20:43;3.42;;;1.67;;
54937;SDS011;52756;52.826;6.214;2024-03-17T01:23:09;3.88;;;1.60;;
54937;SDS011;52756;52.826;6.214;2024-03-17T01:25:35;4.35;;;2.05;;
54937;SDS011;52756;52.826;6.214;2024-03-17T01:28:02;4.18;;;2.17;;
54937;SDS011;52756;52.826;6.214;2024-03-17T01:30:29;6.95;;;2.60;;
54937;SDS011;52756;52.826;6.214;2024-03-17T01:32:54;5.45;;;2.13;;
54937;SDS011;52756;52.826;6.214;2024-03-17T01:35:20;3.67;;;2.20;;
54937;SDS011;52756;52.826;6.214;2024-03-17T01:37:46;4.70;;;2.15;;
54937;SDS011;52756;52.826;6.214;2024-03-17T01:40:12;5.03;;;2.60;;
54937;SDS011;52756;52.826;6.214;2024-03-17T01:42:38;5.82;;;2.22;;
54937;SDS011;52756;52.826;6.214;2024-03-17T01:45:47;4.05;;;1.65;;
54937;SDS011;52756;52.826;6.214;2024-03-17T01:47:55;5.10;;;2.17;;
54937;SDS011;52756;52.826;6.214;2024-03-17T01:50:25;4.63;;;3.00;;
54937;SDS011;52756;52.826;6.214;2024-03-17T01:52:53;6.30;;;2.75;;
54937;SDS011;52756;52.826;6.214;2024-03-17T01:55:21;6.57;;;2.00;;
54937;SDS011;52756;52.826;6.214;2024-03-17T01:57:49;4.68;;;2.08;;
54937;SDS011;52756;52.826;6.214;2024-03-17T02:00:15;5.30;;;2.30;;
54937;SDS011;52756;52.826;6.214;2024-03-17T02:02:41;5.63;;;2.70;;
54937;SDS011;52756;52.826;6.214;2024-03-17T02:05:06;3.58;;;1.83;;
54937;SDS011;52756;52.826;6.214;2024-03-17T02:07:32;4.13;;;2.00;;
54937;SDS011;52756;52.826;6.214;2024-03-17T02:09:58;5.93;;;2.65;;
54937;SDS011;52756;52.826;6.214;2024-03-17T02:12:23;5.93;;;2.40;;
54937;SDS011;52756;52.826;6.214;2024-03-17T02:14:50;4.75;;;2.30;;
54937;SDS011;52756;52.826;6.214;2024-03-17T02:17:15;5.05;;;2.40;;
54937;SDS011;52756;52.826;6.214;2024-03-17T02:19:42;5.85;;;2.40;;
54937;SDS011;52756;52.826;6.214;2024-03-17T02:22:13;5.80;;;2.70;;
54937;SDS011;52756;52.826;6.214;2024-03-17T02:24:40;5.25;;;2.20;;
54937;SDS011;52756;52.826;6.214;2024-03-17T02:27:06;7.32;;;2.28;;
54937;SDS011;52756;52.826;6.214;2024-03-17T02:29:31;6.40;;;2.08;;
54937;SDS011;52756;52.826;6.214;2024-03-17T02:31:57;4.40;;;2.10;;
54937;SDS011;52756;52.826;6.214;2024-03-17T02:34:22;4.32;;;2.08;;
54937;SDS011;52756;52.826;6.214;2024-03-17T02:36:48;3.63;;;2.05;;
54937;SDS011;52756;52.826;6.214;2024-03-17T02:39:14;3.35;;;2.20;;
54937;SDS011;52756;52.826;6.214;2024-03-17T02:41:58;4.60;;;2.72;;
54937;SDS011;52756;52.826;6.214;2024-03-17T02:44:24;4.53;;;2.72;;
54937;SDS011;52756;52.826;6.214;2024-03-17T02:46:50;5.53;;;2.45;;
54937;SDS011;52756;52.826;6.214;2024-03-17T02:49:16;4.80;;;2.70;;
54937;SDS011;52756;52.826;6.214;2024-03-17T02:51:43;6.50;;;3.13;;
54937;SDS011;52756;52.826;6.214;2024-03-17T02:54:09;6.65;;;2.85;;
54937;SDS011;52756;52.826;6.214;2024-03-17T02:56:34;6.45;;;2.70;;
54937;SDS011;52756;52.826;6.214;2024-03-17T02:59:00;7.65;;;2.80;;
54937;SDS011;52756;52.826;6.214;2024-03-17T03:01:26;5.53;;;2.55;;
54937;SDS011;52756;52.826;6.214;2024-03-17T03:03:51;5.20;;;2.65;;
54937;SDS011;52756;52.826;6.214;2024-03-17T03:06:17;7.45;;;2.80;;
54937;SDS011;52756;52.826;6.214;2024-03-17T03:08:44;7.70;;;3.08;;
54937;SDS011;52756;52.826;6.214;2024-03-17T03:11:13;7.97;;;2.90;;
54937;SDS011;52756;52.826;6.214;2024-03-17T03:13:42;10.63;;;3.55;;
54937;SDS011;52756;52.826;6.214;2024-03-17T03:16:12;8.90;;;3.25;;
54937;SDS011;52756;52.826;6.214;2024-03-17T03:21:09;7.78;;;3.30;;
54937;SDS011;52756;52.826;6.214;2024-03-17T03:23:36;9.98;;;3.72;;
54937;SDS011;52756;52.826;6.214;2024-03-17T03:26:02;11.25;;;3.65;;
54937;SDS011;52756;52.826;6.214;2024-03-17T03:28:30;11.88;;;3.40;;
54937;SDS011;52756;52.826;6.214;2024-03-17T03:30:58;11.43;;;3.85;;
54937;SDS011;52756;52.826;6.214;2024-03-17T03:33:24;6.60;;;3.10;;
54937;SDS011;52756;52.826;6.214;2024-03-17T03:35:50;7.70;;;3.65;;
54937;SDS011;52756;52.826;6.214;2024-03-17T03:38:15;8.70;;;2.90;;
54937;SDS011;52756;52.826;6.214;2024-03-17T03:40:42;7.93;;;3.60;;
54937;SDS011;52756;52.826;6.214;2024-03-17T03:43:11;10.25;;;3.58;;
54937;SDS011;52756;52.826;6.214;2024-03-17T03:45:38;8.63;;;3.50;;
54937;SDS011;52756;52.826;6.214;2024-03-17T03:48:05;6.05;;;3.17;;
54937;SDS011;52756;52.826;6.214;2024-03-17T03:50:31;7.32;;;2.90;;
54937;SDS011;52756;52.826;6.214;2024-03-17T03:52:58;10.82;;;4.20;;
54937;SDS011;52756;52.826;6.214;2024-03-17T03:55:24;7.57;;;2.95;;
54937;SDS011;52756;52.826;6.214;2024-03-17T03:57:49;8.55;;;2.88;;
54937;SDS011;52756;52.826;6.214;2024-03-17T04:00:20;8.30;;;3.17;;
54937;SDS011;52756;52.826;6.214;2024-03-17T04:02:47;9.77;;;3.85;;
54937;SDS011;52756;52.826;6.214;2024-03-17T04:05:14;10.88;;;3.70;;
54937;SDS011;52756;52.826;6.214;2024-03-17T04:07:40;11.32;;;3.75;;
54937;SDS011;52756;52.826;6.214;2024-03-17T04:10:08;9.82;;;3.58;;
54937;SDS011;52756;52.826;6.214;2024-03-17T04:12:34;8.30;;;3.33;;
54937;SDS011;52756;52.826;6.214;2024-03-17T04:15:00;12.48;;;4.85;;
54937;SDS011;52756;52.826;6.214;2024-03-17T04:17:26;12.40;;;4.35;;
54937;SDS011;52756;52.826;6.214;2024-03-17T04:19:52;16.40;;;4.10;;
54937;SDS011;52756;52.826;6.214;2024-03-17T04:22:18;13.40;;;4.68;;
54937;SDS011;52756;52.826;6.214;2024-03-17T04:24:47;9.45;;;4.00;;
54937;SDS011;52756;52.826;6.214;2024-03-17T04:27:18;9.75;;;4.53;;
54937;SDS011;52756;52.826;6.214;2024-03-17T04:29:46;8.50;;;3.78;;
54937;SDS011;52756;52.826;6.214;2024-03-17T04:32:13;11.70;;;4.50;;
54937;SDS011;52756;52.826;6.214;2024-03-17T04:34:38;8.80;;;4.22;;
54937;SDS011;52756;52.826;6.214;2024-03-17T04:37:04;12.85;;;5.07;;
54937;SDS011;52756;52.826;6.214;2024-03-17T04:39:30;9.25;;;4.15;;
54937;SDS011;52756;52.826;6.214;2024-03-17T04:41:56;12.30;;;4.70;;
54937;SDS011;52756;52.826;6.214;2024-03-17T04:44:22;9.45;;;4.57;;
54937;SDS011;52756;52.826;6.214;2024-03-17T04:46:48;8.30;;;5.00;;
54937;SDS011;52756;52.826;6.214;2024-03-17T04:49:14;8.10;;;3.92;;
54937;SDS011;52756;52.826;6.214;2024-03-17T04:51:39;11.70;;;4.85;;
54937;SDS011;52756;52.826;6.214;2024-03-17T04:54:05;11.13;;;4.72;;
54937;SDS011;52756;52.826;6.214;2024-03-17T04:56:33;12.63;;;4.68;;
54937;SDS011;52756;52.826;6.214;2024-03-17T04:58:59;12.20;;;4.88;;
54937;SDS011;52756;52.826;6.214;2024-03-17T05:01:24;9.63;;;4.57;;
54937;SDS011;52756;52.826;6.214;2024-03-17T05:03:53;9.50;;;4.78;;
54937;SDS011;52756;52.826;6.214;2024-03-17T05:06:19;15.20;;;5.30;;
54937;SDS011;52756;52.826;6.214;2024-03-17T05:08:44;12.50;;;4.68;;
54937;SDS011;52756;52.826;6.214;2024-03-17T05:11:10;11.10;;;5.00;;
54937;SDS011;52756;52.826;6.214;2024-03-17T05:13:37;9.52;;;4.70;;
54937;SDS011;52756;52.826;6.214;2024-03-17T05:16:05;14.98;;;5.78;;
54937;SDS011;52756;52.826;6.214;2024-03-17T05:18:31;7.20;;;4.43;;
54937;SDS011;52756;52.826;6.214;2024-03-17T05:20:58;11.30;;;5.82;;
54937;SDS011;52756;52.826;6.214;2024-03-17T05:23:25;15.60;;;4.60;;
54937;SDS011;52756;52.826;6.214;2024-03-17T05:25:52;8.43;;;4.55;;
54937;SDS011;52756;52.826;6.214;2024-03-17T05:28:18;12.15;;;5.40;;
54937;SDS011;52756;52.826;6.214;2024-03-17T05:30:44;9.82;;;4.57;;
54937;SDS011;52756;52.826;6.214;2024-03-17T05:33:10;11.85;;;5.18;;
54937;SDS011;52756;52.826;6.214;2024-03-17T05:35:35;11.50;;;5.18;;
54937;SDS011;52756;52.826;6.214;2024-03-17T05:38:01;10.20;;;5.05;;
54937;SDS011;52756;52.826;6.214;2024-03-17T05:40:27;12.75;;;4.20;;
54937;SDS011;52756;52.826;6.214;2024-03-17T05:42:52;17.08;;;4.95;;
54937;SDS011;52756;52.826;6.214;2024-03-17T05:45:18;9.50;;;3.97;;
54937;SDS011;52756;52.826;6.214;2024-03-17T05:47:43;13.35;;;4.22;;
54937;SDS011;52756;52.826;6.214;2024-03-17T05:50:09;14.00;;;5.30;;
54937;SDS011;52756;52.826;6.214;2024-03-17T05:52:35;10.52;;;4.72;;
54937;SDS011;52756;52.826;6.214;2024-03-17T05:55:00;7.78;;;4.47;;
54937;SDS011;52756;52.826;6.214;2024-03-17T05:57:26;8.55;;;4.50;;
54937;SDS011;52756;52.826;6.214;2024-03-17T05:59:53;12.57;;;4.32;;
54937;SDS011;52756;52.826;6.214;2024-03-17T06:02:18;15.73;;;5.35;;
54937;SDS011;52756;52.826;6.214;2024-03-17T06:04:44;9.25;;;4.05;;
54937;SDS011;52756;52.826;6.214;2024-03-17T06:07:09;9.57;;;4.07;;
54937;SDS011;52756;52.826;6.214;2024-03-17T06:09:35;10.00;;;4.53;;
54937;SDS011;52756;52.826;6.214;2024-03-17T06:12:01;10.75;;;4.55;;
54937;SDS011;52756;52.826;6.214;2024-03-17T06:14:26;8.25;;;4.13;;
54937;SDS011;52756;52.826;6.214;2024-03-17T06:16:52;11.23;;;4.45;;
54937;SDS011;52756;52.826;6.214;2024-03-17T06:19:18;14.20;;;5.20;;
54937;SDS011;52756;52.826;6.214;2024-03-17T06:21:45;10.85;;;4.38;;
54937;SDS011;52756;52.826;6.214;2024-03-17T06:24:10;11.00;;;4.40;;
54937;SDS011;52756;52.826;6.214;2024-03-17T06:26:36;8.55;;;4.18;;
54937;SDS011;52756;52.826;6.214;2024-03-17T06:29:01;10.15;;;3.92;;
54937;SDS011;52756;52.826;6.214;2024-03-17T06:31:27;14.52;;;4.50;;
54937;SDS011;52756;52.826;6.214;2024-03-17T06:33:53;13.50;;;3.90;;
54937;SDS011;52756;52.826;6.214;2024-03-17T06:36:18;8.52;;;3.65;;
54937;SDS011;52756;52.826;6.214;2024-03-17T06:38:44;8.95;;;4.15;;
54937;SDS011;52756;52.826;6.214;2024-03-17T06:41:10;11.57;;;4.35;;
54937;SDS011;52756;52.826;6.214;2024-03-17T06:43:35;9.65;;;3.72;;
54937;SDS011;52756;52.826;6.214;2024-03-17T06:46:02;10.32;;;3.97;;
54937;SDS011;52756;52.826;6.214;2024-03-17T06:48:28;9.20;;;3.65;;
54937;SDS011;52756;52.826;6.214;2024-03-17T06:50:54;7.60;;;3.58;;
54937;SDS011;52756;52.826;6.214;2024-03-17T06:53:20;9.95;;;3.92;;
54937;SDS011;52756;52.826;6.214;2024-03-17T06:55:53;8.30;;;3.90;;
54937;SDS011;52756;52.826;6.214;2024-03-17T06:58:20;13.38;;;4.07;;
54937;SDS011;52756;52.826;6.214;2024-03-17T07:00:57;11.50;;;5.13;;
54937;SDS011;52756;52.826;6.214;2024-03-17T07:03:27;11.55;;;4.20;;
54937;SDS011;52756;52.826;6.214;2024-03-17T07:05:57;9.98;;;4.20;;
54937;SDS011;52756;52.826;6.214;2024-03-17T07:08:24;6.93;;;3.75;;
54937;SDS011;52756;52.826;6.214;2024-03-17T07:13:28;10.25;;;4.95;;
54937;SDS011;52756;52.826;6.214;2024-03-17T07:15:54;9.45;;;3.88;;
54937;SDS011;52756;52.826;6.214;2024-03-17T07:18:20;10.55;;;4.07;;
54937;SDS011;52756;52.826;6.214;2024-03-17T07:20:46;10.85;;;4.78;;
54937;SDS011;52756;52.826;6.214;2024-03-17T07:23:13;12.80;;;5.50;;
54937;SDS011;52756;52.826;6.214;2024-03-17T07:25:40;16.52;;;5.60;;
54937;SDS011;52756;52.826;6.214;2024-03-17T07:28:06;13.40;;;6.82;;
54937;SDS011;52756;52.826;6.214;2024-03-17T07:30:31;13.05;;;6.28;;
54937;SDS011;52756;52.826;6.214;2024-03-17T07:32:58;14.00;;;6.25;;
54937;SDS011;52756;52.826;6.214;2024-03-17T07:35:24;11.38;;;7.00;;
54937;SDS011;52756;52.826;6.214;2024-03-17T07:37:50;12.88;;;5.97;;
54937;SDS011;52756;52.826;6.214;2024-03-17T07:40:15;17.58;;;7.47;;
54937;SDS011;52756;52.826;6.214;2024-03-17T07:42:41;9.88;;;6.55;;
54937;SDS011;52756;52.826;6.214;2024-03-17T07:45:07;14.13;;;7.30;;
54937;SDS011;52756;52.826;6.214;2024-03-17T07:47:33;15.15;;;7.53;;
54937;SDS011;52756;52.826;6.214;2024-03-17T07:50:02;13.65;;;7.05;;
54937;SDS011;52756;52.826;6.214;2024-03-17T07:52:31;11.20;;;6.95;;
54937;SDS011;52756;52.826;6.214;2024-03-17T07:55:00;16.88;;;7.18;;
54937;SDS011;52756;52.826;6.214;2024-03-17T07:57:27;17.05;;;7.63;;
54937;SDS011;52756;52.826;6.214;2024-03-17T07:59:52;12.48;;;8.05;;
54937;SDS011;52756;52.826;6.214;2024-03-17T08:02:18;16.42;;;7.03;;
54937;SDS011;52756;52.826;6.214;2024-03-17T08:04:44;11.77;;;7.00;;
54937;SDS011;52756;52.826;6.214;2024-03-17T08:07:10;14.82;;;7.55;;
54937;SDS011;52756;52.826;6.214;2024-03-17T08:09:35;12.35;;;7.20;;
54937;SDS011;52756;52.826;6.214;2024-03-17T08:12:01;14.15;;;8.55;;
54937;SDS011;52756;52.826;6.214;2024-03-17T08:14:29;12.55;;;8.05;;
54937;SDS011;52756;52.826;6.214;2024-03-17T08:16:55;13.02;;;7.50;;
54937;SDS011;52756;52.826;6.214;2024-03-17T08:19:21;13.98;;;7.25;;
54937;SDS011;52756;52.826;6.214;2024-03-17T08:21:46;16.48;;;8.10;;
54937;SDS011;52756;52.826;6.214;2024-03-17T08:24:12;13.18;;;7.82;;
54937;SDS011;52756;52.826;6.214;2024-03-17T08:26:38;14.48;;;7.97;;
54937;SDS011;52756;52.826;6.214;2024-03-17T08:29:05;15.23;;;7.93;;
54937;SDS011;52756;52.826;6.214;2024-03-17T08:31:31;13.95;;;7.45;;
54937;SDS011;52756;52.826;6.214;2024-03-17T08:33:57;14.25;;;7.80;;
54937;SDS011;52756;52.826;6.214;2024-03-17T08:36:23;15.55;;;8.55;;
54937;SDS011;52756;52.826;6.214;2024-03-17T08:38:49;13.45;;;6.85;;
54937;SDS011;52756;52.826;6.214;2024-03-17T08:41:15;15.02;;;7.47;;
54937;SDS011;52756;52.826;6.214;2024-03-17T08:43:41;12.98;;;8.38;;
54937;SDS011;52756;52.826;6.214;2024-03-17T08:46:08;14.13;;;8.68;;
54937;SDS011;52756;52.826;6.214;2024-03-17T08:48:38;12.23;;;7.65;;
54937;SDS011;52756;52.826;6.214;2024-03-17T08:51:06;14.43;;;7.95;;
54937;SDS011;52756;52.826;6.214;2024-03-17T08:53:32;15.50;;;8.13;;
54937;SDS011;52756;52.826;6.214;2024-03-17T08:55:58;13.45;;;7.70;;
54937;SDS011;52756;52.826;6.214;2024-03-17T08:58:25;14.45;;;8.77;;
54937;SDS011;52756;52.826;6.214;2024-03-17T09:00:51;13.15;;;7.82;;
54937;SDS011;52756;52.826;6.214;2024-03-17T09:03:17;11.35;;;7.30;;
54937;SDS011;52756;52.826;6.214;2024-03-17T09:05:44;12.70;;;7.25;;
54937;SDS011;52756;52.826;6.214;2024-03-17T09:08:14;11.35;;;7.40;;
54937;SDS011;52756;52.826;6.214;2024-03-17T09:10:45;10.88;;;7.30;;
54937;SDS011;52756;52.826;6.214;2024-03-17T09:13:15;14.77;;;7.97;;
54937;SDS011;52756;52.826;6.214;2024-03-17T09:15:52;11.82;;;7.93;;
54937;SDS011;52756;52.826;6.214;2024-03-17T09:18:24;11.20;;;7.40;;
54937;SDS011;52756;52.826;6.214;2024-03-17T09:21:01;10.48;;;7.32;;
54937;SDS011;52756;52.826;6.214;2024-03-17T09:23:32;14.02;;;7.60;;
54937;SDS011;52756;52.826;6.214;2024-03-17T09:26:03;11.60;;;7.55;;
54937;SDS011;52756;52.826;6.214;2024-03-17T09:28:30;9.93;;;7.00;;
54937;SDS011;52756;52.826;6.214;2024-03-17T09:30:57;11.07;;;7.20;;
54937;SDS011;52756;52.826;6.214;2024-03-17T09:33:25;12.10;;;7.30;;
54937;SDS011;52756;52.826;6.214;2024-03-17T09:35:52;10.55;;;7.38;;
54937;SDS011;52756;52.826;6.214;2024-03-17T09:38:21;11.77;;;8.23;;
54937;SDS011;52756;52.826;6.214;2024-03-17T09:40:47;11.70;;;8.02;;
54937;SDS011;52756;52.826;6.214;2024-03-17T09:43:16;11.70;;;7.45;;
54937;SDS011;52756;52.826;6.214;2024-03-17T09:45:42;9.38;;;7.28;;
54937;SDS011;52756;52.826;6.214;2024-03-17T09:48:07;10.35;;;7.20;;
54937;SDS011;52756;52.826;6.214;2024-03-17T09:50:41;12.23;;;7.27;;
54937;SDS011;52756;52.826;6.214;2024-03-17T09:53:07;11.57;;;7.70;;
54937;SDS011;52756;52.826;6.214;2024-03-17T09:55:38;11.18;;;7.22;;
54937;SDS011;52756;52.826;6.214;2024-03-17T09:58:04;11.73;;;7.05;;
54937;SDS011;52756;52.826;6.214;2024-03-17T10:00:33;9.98;;;7.10;;
54937;SDS011;52756;52.826;6.214;2024-03-17T10:02:58;15.18;;;6.95;;
54937;SDS011;52756;52.826;6.214;2024-03-17T10:05:24;11.25;;;6.97;;
54937;SDS011;52756;52.826;6.214;2024-03-17T10:07:51;12.70;;;6.88;;
54937;SDS011;52756;52.826;6.214;2024-03-17T10:10:17;11.05;;;7.30;;
54937;SDS011;52756;52.826;6.214;2024-03-17T10:12:51;12.18;;;6.70;;
54937;SDS011;52756;52.826;6.214;2024-03-17T10:15:20;11.15;;;6.68;;
54937;SDS011;52756;52.826;6.214;2024-03-17T10:18:32;10.13;;;6.88;;
54937;SDS011;52756;52.826;6.214;2024-03-17T10:21:09;9.80;;;7.10;;
54937;SDS011;52756;52.826;6.214;2024-03-17T10:24:04;14.40;;;7.45;;
54937;SDS011;52756;52.826;6.214;2024-03-17T10:26:35;10.93;;;7.20;;
54937;SDS011;52756;52.826;6.214;2024-03-17T10:32:04;11.70;;;7.82;;
54937;SDS011;52756;52.826;6.214;2024-03-17T10:34:42;8.52;;;6.93;;
54937;SDS011;52756;52.826;6.214;2024-03-17T10:37:13;13.60;;;7.60;;
54937;SDS011;52756;52.826;6.214;2024-03-17T10:39:45;11.20;;;7.97;;
54937;SDS011;52756;52.826;6.214;2024-03-17T10:42:23;12.90;;;8.18;;
54937;SDS011;52756;52.826;6.214;2024-03-17T10:44:53;10.73;;;7.57;;
54937;SDS011;52756;52.826;6.214;2024-03-17T10:47:27;12.25;;;8.13;;
54937;SDS011;52756;52.826;6.214;2024-03-17T10:49:53;12.20;;;7.20;;
54937;SDS011;52756;52.826;6.214;2024-03-17T10:52:20;9.70;;;6.50;;
54937;SDS011;52756;52.826;6.214;2024-03-17T10:55:07;9.48;;;6.72;;
54937;SDS011;52756;52.826;6.214;2024-03-17T10:58:29;10.02;;;6.65;;
54937;SDS011;52756;52.826;6.214;2024-03-17T11:01:21;9.05;;;6.55;;
54937;SDS011;52756;52.826;6.214;2024-03-17T11:06:23;9.45;;;6.45;;
54937;SDS011;52756;52.826;6.214;2024-03-17T11:08:52;7.80;;;6.53;;
54937;SDS011;52756;52.826;6.214;2024-03-17T11:11:39;9.38;;;7.03;;
54937;SDS011;52756;52.826;6.214;2024-03-17T11:14:18;10.35;;;7.53;;
54937;SDS011;52756;52.826;6.214;2024-03-17T11:16:47;9.10;;;6.18;;
54937;SDS011;52756;52.826;6.214;2024-03-17T11:19:16;7.55;;;5.97;;
54937;SDS011;52756;52.826;6.214;2024-03-17T11:21:45;8.45;;;6.70;;
54937;SDS011;52756;52.826;6.214;2024-03-17T11:24:20;7.32;;;5.90;;
54937;SDS011;52756;52.826;6.214;2024-03-17T11:26:46;9.13;;;6.35;;
54937;SDS011;52756;52.826;6.214;2024-03-17T11:29:28;8.00;;;5.93;;
54937;SDS011;52756;52.826;6.214;2024-03-17T11:31:55;9.38;;;5.78;;
54937;SDS011;52756;52.826;6.214;2024-03-17T11:36:56;6.57;;;5.60;;
54937;SDS011;52756;52.826;6.214;2024-03-17T11:42:12;10.55;;;5.97;;
54937;SDS011;52756;52.826;6.214;2024-03-17T11:44:41;12.30;;;6.63;;
54937;SDS011;52756;52.826;6.214;2024-03-17T11:47:37;9.05;;;6.22;;
54937;SDS011;52756;52.826;6.214;2024-03-17T11:50:05;8.00;;;5.82;;
54937;SDS011;52756;52.826;6.214;2024-03-17T11:52:34;8.82;;;6.03;;
54937;SDS011;52756;52.826;6.214;2024-03-17T11:55:00;9.10;;;5.88;;
54937;SDS011;52756;52.826;6.214;2024-03-17T11:57:26;7.03;;;5.82;;
54937;SDS011;52756;52.826;6.214;2024-03-17T11:59:53;7.30;;;5.78;;
54937;SDS011;52756;52.826;6.214;2024-03-17T12:02:24;9.93;;;5.60;;
54937;SDS011;52756;52.826;6.214;2024-03-17T12:04:51;6.97;;;5.47;;
54937;SDS011;52756;52.826;6.214;2024-03-17T12:07:18;9.75;;;6.22;;
54937;SDS011;52756;52.826;6.214;2024-03-17T12:09:46;7.13;;;5.80;;
54937;SDS011;52756;52.826;6.214;2024-03-17T12:12:19;11.55;;;6.78;;
54937;SDS011;52756;52.826;6.214;2024-03-17T12:14:46;10.00;;;6.90;;
54937;SDS011;52756;52.826;6.214;2024-03-17T12:17:14;8.05;;;5.90;;
54937;SDS011;52756;52.826;6.214;2024-03-17T12:19:44;8.23;;;6.32;;
54937;SDS011;52756;52.826;6.214;2024-03-17T12:22:14;7.35;;;6.32;;
54937;SDS011;52756;52.826;6.214;2024-03-17T12:24:47;7.75;;;5.75;;
54937;SDS011;52756;52.826;6.214;2024-03-17T12:27:17;7.63;;;5.72;;
54937;SDS011;52756;52.826;6.214;2024-03-17T12:29:45;9.55;;;6.60;;
54937;SDS011;52756;52.826;6.214;2024-03-17T12:32:13;9.82;;;6.70;;
54937;SDS011;52756;52.826;6.214;2024-03-17T12:34:53;7.60;;;6.78;;
54937;SDS011;52756;52.826;6.214;2024-03-17T12:37:20;11.25;;;7.50;;
54937;SDS011;52756;52.826;6.214;2024-03-17T12:39:47;10.65;;;7.13;;
54937;SDS011;52756;52.826;6.214;2024-03-17T12:42:14;9.23;;;7.30;;
54937;SDS011;52756;52.826;6.214;2024-03-17T12:44:57;8.63;;;6.47;;
54937;SDS011;52756;52.826;6.214;2024-03-17T12:47:25;8.70;;;6.20;;
54937;SDS011;52756;52.826;6.214;2024-03-17T12:49:52;8.48;;;6.75;;
54937;SDS011;52756;52.826;6.214;2024-03-17T12:52:22;8.93;;;6.65;;
54937;SDS011;52756;52.826;6.214;2024-03-17T12:54:58;8.73;;;6.32;;
54937;SDS011;52756;52.826;6.214;2024-03-17T12:57:46;9.15;;;6.43;;
54937;SDS011;52756;52.826;6.214;2024-03-17T13:00:34;8.65;;;6.28;;
54937;SDS011;52756;52.826;6.214;2024-03-17T13:03:06;7.60;;;6.13;;
54937;SDS011;52756;52.826;6.214;2024-03-17T13:05:33;9.02;;;6.97;;
54937;SDS011;52756;52.826;6.214;2024-03-17T13:07:59;9.30;;;6.88;;
54937;SDS011;52756;52.826;6.214;2024-03-17T13:10:29;11.10;;;7.40;;
54937;SDS011;52756;52.826;6.214;2024-03-17T13:13:08;11.35;;;6.93;;
54937;SDS011;52756;52.826;6.214;2024-03-17T13:15:34;8.43;;;7.05;;
54937;SDS011;52756;52.826;6.214;2024-03-17T13:18:01;10.30;;;6.55;;
54937;SDS011;52756;52.826;6.214;2024-03-17T13:20:29;12.00;;;6.82;;
54937;SDS011;52756;52.826;6.214;2024-03-17T13:22:55;7.90;;;6.35;;
54937;SDS011;52756;52.826;6.214;2024-03-17T13:25:23;9.30;;;7.22;;
54937;SDS011;52756;52.826;6.214;2024-03-17T13:27:51;9.23;;;6.43;;
54937;SDS011;52756;52.826;6.214;2024-03-17T13:30:18;7.78;;;5.85;;
54937;SDS011;52756;52.826;6.214;2024-03-17T13:32:53;8.27;;;5.63;;
54937;SDS011;52756;52.826;6.214;2024-03-17T13:35:26;12.65;;;6.07;;
54937;SDS011;52756;52.826;6.214;2024-03-17T13:37:54;7.35;;;5.40;;
54937;SDS011;52756;52.826;6.214;2024-03-17T13:40:24;9.35;;;6.03;;
54937;SDS011;52756;52.826;6.214;2024-03-17T13:42:50;8.98;;;5.85;;
54937;SDS011;52756;52.826;6.214;2024-03-17T13:45:17;7.68;;;6.20;;
54937;SDS011;52756;52.826;6.214;2024-03-17T13:47:49;8.18;;;5.80;;
54937;SDS011;52756;52.826;6.214;2024-03-17T13:50:17;8.85;;;6.22;;
54937;SDS011;52756;52.826;6.214;2024-03-17T13:52:46;8.60;;;6.13;;
54937;SDS011;52756;52.826;6.214;2024-03-17T13:55:14;8.98;;;6.20;;
54937;SDS011;52756;52.826;6.214;2024-03-17T13:57:45;9.57;;;6.53;;
54937;SDS011;52756;52.826;6.214;2024-03-17T14:00:13;7.75;;;6.00;;
54937;SDS011;52756;52.826;6.214;2024-03-17T14:02:45;8.45;;;6.00;;
54937;SDS011;52756;52.826;6.214;2024-03-17T14:05:12;7.38;;;5.88;;
54937;SDS011;52756;52.826;6.214;2024-03-17T14:07:40;7.10;;;6.32;;
54937;SDS011;52756;52.826;6.214;2024-03-17T14:10:05;7.15;;;6.07;;
54937;SDS011;52756;52.826;6.214;2024-03-17T14:12:33;7.20;;;6.47;;
54937;SDS011;52756;52.826;6.214;2024-03-17T14:14:59;7.68;;;6.38;;
54937;SDS011;52756;52.826;6.214;2024-03-17T14:17:25;7.88;;;6.57;;
54937;SDS011;52756;52.826;6.214;2024-03-17T14:19:50;8.55;;;6.68;;
54937;SDS011;52756;52.826;6.214;2024-03-17T14:22:16;10.82;;;6.97;;
54937;SDS011;52756;52.826;6.214;2024-03-17T14:24:42;7.05;;;5.97;;
54937;SDS011;52756;52.826;6.214;2024-03-17T14:27:08;10.10;;;7.10;;
54937;SDS011;52756;52.826;6.214;2024-03-17T14:29:37;8.82;;;5.95;;
54937;SDS011;52756;52.826;6.214;2024-03-17T14:32:06;7.95;;;5.90;;
54937;SDS011;52756;52.826;6.214;2024-03-17T14:34:31;10.23;;;6.60;;
54937;SDS011;52756;52.826;6.214;2024-03-17T14:37:02;9.52;;;6.63;;
54937;SDS011;52756;52.826;6.214;2024-03-17T14:39:28;8.23;;;6.68;;
54937;SDS011;52756;52.826;6.214;2024-03-17T14:41:55;8.60;;;5.82;;
54937;SDS011;52756;52.826;6.214;2024-03-17T14:44:21;8.18;;;6.55;;
54937;SDS011;52756;52.826;6.214;2024-03-17T14:46:50;9.57;;;6.40;;
54937;SDS011;52756;52.826;6.214;2024-03-17T14:49:20;7.68;;;5.97;;
54937;SDS011;52756;52.826;6.214;2024-03-17T14:51:46;7.85;;;5.88;;
54937;SDS011;52756;52.826;6.214;2024-03-17T14:54:12;6.95;;;5.82;;
54937;SDS011;52756;52.826;6.214;2024-03-17T14:56:38;6.95;;;6.20;;
54937;SDS011;52756;52.826;6.214;2024-03-17T14:59:05;7.63;;;5.95;;
54937;SDS011;52756;52.826;6.214;2024-03-17T15:01:31;11.50;;;6.50;;
54937;SDS011;52756;52.826;6.214;2024-03-17T15:03:56;10.57;;;6.47;;